Time;durP1;ratioP1;P1;durP2;ratioP2;P2;SDS_P1;SDS_P2;PMS_P1;PMS_P2;Temp;Humidity;BMP_temperature;BMP_pressure;BME280_temperature;BME280_humidity;BME280_pressure;Samples;Min_cycle;Max_cycle;Signal;HPM_P1;HPM_P2
2023/09/07 00:01:45;;;;;;;9.90;6.20;;;21.40;99.90;;;;;;4994624;28;20034;-49
2023/09/07 00:04:13;;;;;;;11.15;6.82;;;21.40;99.90;;;;;;4994346;28;20023;-45
2023/09/07 00:06:43;;;;;;;12.70;6.47;;;21.30;99.90;;;;;;4994471;28;20034;-47
2023/09/07 00:09:10;;;;;;;8.88;5.78;;;21.60;99.90;;;;;;4994023;28;20496;-48
2023/09/07 00:11:36;;;;;;;8.52;5.53;;;20.50;99.90;;;;;;4994246;28;20085;-48
2023/09/07 00:14:02;;;;;;;9.88;6.72;;;21.10;99.90;;;;;;4992963;28;20105;-51
2023/09/07 00:16:28;;;;;;;11.20;7.63;;;21.00;99.90;;;;;;4994242;28;20033;-45
2023/09/07 00:18:53;;;;;;;15.13;9.50;;;21.00;99.90;;;;;;4994267;28;20081;-51
2023/09/07 00:21:19;;;;;;;13.55;9.18;;;21.00;99.90;;;;;;4993958;28;20026;-50
2023/09/07 00:23:44;;;;;;;15.02;9.63;;;21.00;99.90;;;;;;4994602;28;20023;-47
2023/09/07 00:26:12;;;;;;;15.27;8.50;;;20.90;99.90;;;;;;4994352;28;20026;-54
2023/09/07 00:28:38;;;;;;;12.75;7.80;;;20.90;99.90;;;;;;4994188;28;20451;-51
2023/09/07 00:31:03;;;;;;;10.73;7.35;;;20.90;99.90;;;;;;4994034;28;20045;-48
2023/09/07 00:33:29;;;;;;;10.20;7.57;;;20.90;99.90;;;;;;4993985;28;20392;-50
2023/09/07 00:35:55;;;;;;;14.55;6.85;;;23.30;99.90;;;;;;4994093;28;20088;-53
2023/09/07 00:38:20;;;;;;;10.50;7.18;;;22.10;99.90;;;;;;4993847;28;20024;-51
2023/09/07 00:40:46;;;;;;;10.70;7.75;;;22.00;99.90;;;;;;4993962;28;20127;-45
2023/09/07 00:43:12;;;;;;;10.60;7.13;;;22.10;99.90;;;;;;4993901;28;20026;-50
2023/09/07 00:45:39;;;;;;;9.25;6.68;;;21.90;99.90;;;;;;4993973;28;20077;-48
2023/09/07 00:48:05;;;;;;;12.15;7.30;;;18.60;99.90;;;;;;4993891;28;20545;-48
2023/09/07 00:50:31;;;;;;;10.65;7.05;;;18.50;99.90;;;;;;4993561;28;20038;-52
2023/09/07 00:52:59;;;;;;;9.68;7.22;;;21.60;99.90;;;;;;4993421;28;20562;-54
2023/09/07 00:55:25;;;;;;;12.43;7.47;;;19.00;99.90;;;;;;4993684;28;20038;-53
2023/09/07 00:57:51;;;;;;;13.93;7.70;;;21.70;99.90;;;;;;4993674;28;20026;-53
2023/09/07 01:00:17;;;;;;;11.15;7.43;;;20.90;99.90;;;;;;4993548;28;20085;-45
2023/09/07 01:02:44;;;;;;;12.52;7.32;;;21.60;99.90;;;;;;4993619;28;20109;-46
2023/09/07 01:05:11;;;;;;;13.10;7.78;;;21.80;99.90;;;;;;4993492;28;20104;-52
2023/09/07 01:07:57;;;;;;;13.65;7.30;;;20.80;99.90;;;;;;4993342;28;20042;-49
2023/09/07 01:10:23;;;;;;;10.07;7.13;;;20.60;99.90;;;;;;4993473;28;20042;-51
2023/09/07 01:12:48;;;;;;;12.85;7.57;;;21.50;99.90;;;;;;4993409;28;20021;-52
2023/09/07 01:15:14;;;;;;;12.73;8.35;;;18.30;99.90;;;;;;4993267;28;20038;-54
2023/09/07 01:17:40;;;;;;;11.52;7.05;;;20.80;99.90;;;;;;4993105;28;20460;-53
2023/09/07 01:20:09;;;;;;;10.95;7.65;;;21.70;99.90;;;;;;4993289;28;20113;-58
2023/09/07 01:22:36;;;;;;;14.38;7.68;;;20.70;99.90;;;;;;4975916;28;20028;-51
2023/09/07 01:25:04;;;;;;;12.00;8.02;;;20.70;99.90;;;;;;4993079;28;20100;-58
2023/09/07 01:27:30;;;;;;;13.13;7.90;;;20.60;99.90;;;;;;4993260;28;20041;-49
2023/09/07 01:29:57;;;;;;;12.80;8.50;;;20.20;99.90;;;;;;4992921;28;20129;-52
2023/09/07 01:32:22;;;;;;;12.85;7.90;;;20.50;99.90;;;;;;4993221;28;20034;-51
2023/09/07 01:34:48;;;;;;;13.48;8.48;;;20.40;99.90;;;;;;4993095;28;20639;-53
2023/09/07 01:37:14;;;;;;;13.43;9.05;;;20.40;99.90;;;;;;4993279;28;20088;-47
2023/09/07 01:39:39;;;;;;;13.55;9.05;;;20.40;99.90;;;;;;4992984;28;20025;-46
2023/09/07 01:42:05;;;;;;;14.30;8.82;;;20.40;99.90;;;;;;4992758;28;20041;-55
2023/09/07 01:44:30;;;;;;;15.15;9.57;;;20.40;99.90;;;;;;4992830;28;20022;-51
2023/09/07 01:46:56;;;;;;;11.57;7.35;;;20.40;99.90;;;;;;4992815;28;20114;-49
2023/09/07 01:49:22;;;;;;;13.77;7.72;;;20.40;99.90;;;;;;4992484;28;20376;-52
2023/09/07 01:51:47;;;;;;;15.48;8.73;;;20.30;99.90;;;;;;4992457;28;20105;-47
2023/09/07 01:54:13;;;;;;;11.27;8.25;;;19.40;99.90;;;;;;4992538;28;20507;-50
2023/09/07 01:56:41;;;;;;;13.05;8.02;;;20.30;99.90;;;;;;4992361;28;20070;-49
2023/09/07 01:59:06;;;;;;;13.48;8.10;;;20.20;99.90;;;;;;4975013;28;20033;-48
2023/09/07 02:01:36;;;;;;;13.65;8.75;;;20.20;99.90;;;;;;4992369;28;20097;-52
2023/09/07 02:04:02;;;;;;;11.13;7.85;;;20.20;99.90;;;;;;4991641;28;20467;-49
2023/09/07 02:06:28;;;;;;;12.90;8.93;;;20.20;99.90;;;;;;4992170;28;20459;-47
2023/09/07 02:08:53;;;;;;;14.63;8.27;;;17.00;99.90;;;;;;4991905;28;20068;-54
2023/09/07 02:11:19;;;;;;;18.20;8.07;;;20.60;99.90;;;;;;4992190;28;20089;-45
2023/09/07 02:13:47;;;;;;;11.50;7.70;;;20.20;99.90;;;;;;4992068;28;20033;-48
2023/09/07 02:16:12;;;;;;;11.10;7.75;;;20.00;99.90;;;;;;4991964;28;20031;-50
2023/09/07 02:18:39;;;;;;;12.32;7.43;;;19.90;99.90;;;;;;4990834;28;20034;-52
2023/09/07 02:21:05;;;;;;;11.85;7.75;;;19.90;99.90;;;;;;4991819;28;20061;-53
2023/09/07 02:23:36;;;;;;;16.52;10.93;;;19.80;99.90;;;;;;4991885;28;20050;-53
2023/09/07 02:26:02;;;;;;;13.80;8.95;;;19.80;99.90;;;;;;4991874;28;20485;-47
2023/09/07 02:28:28;;;;;;;14.73;9.23;;;19.80;99.90;;;;;;4991682;28;20050;-50
2023/09/07 02:30:54;;;;;;;17.92;9.73;;;19.80;99.90;;;;;;4974433;28;20046;-50
2023/09/07 02:33:19;;;;;;;12.40;8.45;;;19.30;99.90;;;;;;4991568;28;20033;-51
2023/09/07 02:35:47;;;;;;;15.18;8.27;;;19.80;99.90;;;;;;4989836;28;20073;-46
2023/09/07 02:38:13;;;;;;;15.00;8.15;;;19.80;99.90;;;;;;4991651;28;20057;-54
2023/09/07 02:40:45;;;;;;;13.45;7.97;;;19.80;99.90;;;;;;4991286;28;20091;-50
2023/09/07 02:43:10;;;;;;;14.85;9.00;;;18.70;99.90;;;;;;4991575;28;20079;-51
2023/09/07 02:45:36;;;;;;;17.58;9.35;;;19.80;99.90;;;;;;4991587;28;20200;-54
2023/09/07 02:48:02;;;;;;;16.75;10.18;;;17.70;99.90;;;;;;4991371;28;20029;-51
2023/09/07 02:50:33;;;;;;;15.35;10.40;;;20.70;99.90;;;;;;4991520;28;20184;-56
2023/09/07 02:52:59;;;;;;;16.45;10.68;;;19.70;99.90;;;;;;4991248;28;20094;-50
2023/09/07 02:55:25;;;;;;;14.80;10.00;;;20.30;99.90;;;;;;4991286;28;20050;-50
2023/09/07 02:57:51;;;;;;;20.33;11.88;;;20.30;99.90;;;;;;4991217;28;20026;-48
2023/09/07 03:00:17;;;;;;;21.05;12.38;;;20.40;99.90;;;;;;4991558;28;20041;-53
2023/09/07 03:02:43;;;;;;;20.10;12.82;;;20.90;99.90;;;;;;4991307;28;20463;-46
2023/09/07 03:05:09;;;;;;;20.60;12.43;;;20.00;99.90;;;;;;4991043;28;20030;-53
2023/09/07 03:07:35;;;;;;;20.58;13.70;;;20.80;99.90;;;;;;4991098;28;20046;-46
2023/09/07 03:10:00;;;;;;;22.15;13.55;;;19.70;99.90;;;;;;4990964;28;20037;-57
2023/09/07 03:12:27;;;;;;;24.70;14.18;;;20.30;99.90;;;;;;4991237;28;20037;-45
2023/09/07 03:14:53;;;;;;;23.55;14.13;;;19.70;99.90;;;;;;4990949;28;20034;-50
2023/09/07 03:17:20;;;;;;;24.63;15.20;;;20.30;99.90;;;;;;4991146;28;20081;-50
2023/09/07 03:19:49;;;;;;;24.15;14.75;;;17.70;99.90;;;;;;4991151;28;20023;-51
2023/09/07 03:22:14;;;;;;;25.73;16.00;;;17.60;99.90;;;;;;4991001;28;20030;-52
2023/09/07 03:24:40;;;;;;;22.70;13.55;;;17.80;99.90;;;;;;4990951;28;20262;-48
2023/09/07 03:27:06;;;;;;;25.60;15.63;;;;;;;;;;4990842;28;20022;-50
2023/09/07 03:29:33;;;;;;;22.88;14.60;;;20.30;99.90;;;;;;4990936;28;20043;-55
2023/09/07 03:32:00;;;;;;;27.65;16.65;;;20.60;99.90;;;;;;4990969;28;20031;-52
2023/09/07 03:34:25;;;;;;;25.67;15.27;;;21.20;99.90;;;;;;4990910;28;20384;-50
2023/09/07 03:36:51;;;;;;;26.75;16.00;;;19.60;99.90;;;;;;4990955;28;20026;-51
2023/09/07 03:39:18;;;;;;;25.38;16.00;;;19.70;99.90;;;;;;4990784;28;20031;-58
2023/09/07 03:41:44;;;;;;;24.50;15.48;;;17.70;99.90;;;;;;4990852;28;20105;-56
2023/09/07 03:44:10;;;;;;;28.25;15.63;;;19.50;99.90;;;;;;4990583;28;20045;-46
2023/09/07 03:46:36;;;;;;;28.65;16.02;;;20.20;99.90;;;;;;4990858;28;20038;-51
2023/09/07 03:49:02;;;;;;;34.35;17.30;;;18.90;99.90;;;;;;4990703;28;20030;-51
2023/09/07 03:51:27;;;;;;;33.05;18.02;;;19.10;99.90;;;;;;4990541;28;20042;-47
2023/09/07 03:53:53;;;;;;;30.48;17.58;;;21.40;99.90;;;;;;4990711;28;20029;-52
2023/09/07 03:56:18;;;;;;;32.95;18.10;;;20.20;99.90;;;;;;4990521;28;20065;-48
2023/09/07 03:58:47;;;;;;;30.75;17.85;;;;;;;;;;4990805;28;20026;-51
2023/09/07 04:01:13;;;;;;;29.55;17.58;;;17.70;99.90;;;;;;4989312;28;20391;-52
2023/09/07 04:03:40;;;;;;;36.50;19.88;;;18.10;99.90;;;;;;4990650;28;20117;-46
2023/09/07 04:06:06;;;;;;;34.88;18.27;;;;;;;;;;4973039;28;20110;-45
2023/09/07 04:08:32;;;;;;;32.97;20.23;;;19.20;99.90;;;;;;4990504;28;20108;-44
2023/09/07 04:10:57;;;;;;;36.00;19.98;;;17.60;99.90;;;;;;4990456;28;20034;-45
2023/09/07 04:13:23;;;;;;;37.55;21.45;;;19.70;99.90;;;;;;4990656;28;20061;-49
2023/09/07 04:15:49;;;;;;;30.55;19.40;;;21.00;99.90;;;;;;4990414;28;20030;-44
2023/09/07 04:18:17;;;;;;;34.63;20.70;;;20.60;99.90;;;;;;4990079;28;20038;-45
2023/09/07 04:20:44;;;;;;;35.33;19.75;;;18.90;99.90;;;;;;4990856;28;20066;-44
2023/09/07 04:23:09;;;;;;;34.03;20.42;;;21.40;99.90;;;;;;4990237;28;20432;-44
2023/09/07 04:25:35;;;;;;;34.70;21.73;;;;;;;;;;4990419;28;20037;-45
2023/09/07 04:28:01;;;;;;;30.38;18.17;;;20.30;99.90;;;;;;4992181;28;20056;-44
2023/09/07 04:30:26;;;;;;;34.55;20.02;;;19.60;99.90;;;;;;4993864;28;20031;-46
2023/09/07 04:32:52;;;;;;;33.15;19.52;;;20.20;99.90;;;;;;4993933;28;20027;-45
2023/09/07 04:35:18;;;;;;;35.00;19.20;;;16.90;99.90;;;;;;4993736;28;20038;-44
2023/09/07 04:37:44;;;;;;;34.35;19.83;;;16.70;99.90;;;;;;4993828;28;20105;-45
2023/09/07 04:40:11;;;;;;;39.80;19.85;;;18.90;99.90;;;;;;4993684;28;20495;-44
2023/09/07 04:42:38;;;;;;;33.65;19.17;;;19.20;99.90;;;;;;4993668;28;20022;-44
2023/09/07 04:45:07;;;;;;;35.30;19.63;;;20.50;99.90;;;;;;4993750;28;20018;-45
2023/09/07 04:47:34;;;;;;;35.17;19.35;;;19.20;99.90;;;;;;4993773;28;20528;-45
2023/09/07 04:49:59;;;;;;;33.70;20.50;;;20.60;99.90;;;;;;4993673;28;20038;-44
2023/09/07 04:52:26;;;;;;;33.97;19.40;;;;;;;;;;4993674;28;20026;-45
2023/09/07 04:54:51;;;;;;;35.28;19.35;;;19.80;99.90;;;;;;4993564;28;20096;-45
2023/09/07 04:57:20;;;;;;;32.08;19.02;;;19.60;99.90;;;;;;4993809;28;20022;-44
2023/09/07 04:59:45;;;;;;;32.22;18.23;;;16.20;99.90;;;;;;4993641;28;20027;-45
2023/09/07 05:02:12;;;;;;;37.33;19.05;;;;;;;;;;4992332;28;20030;-45
2023/09/07 05:04:38;;;;;;;33.65;19.17;;;21.00;99.90;;;;;;4993454;28;20030;-49
2023/09/07 05:07:04;;;;;;;29.65;17.38;;;19.10;99.90;;;;;;4993716;28;20030;-45
2023/09/07 05:09:30;;;;;;;32.03;18.17;;;16.30;99.90;;;;;;4993344;28;20037;-48
2023/09/07 05:11:56;;;;;;;29.67;16.83;;;19.60;99.90;;;;;;4993582;28;20058;-44
2023/09/07 05:14:24;;;;;;;34.08;17.33;;;20.70;99.90;;;;;;4993336;28;20061;-46
2023/09/07 05:16:49;;;;;;;31.33;16.42;;;18.10;99.90;;;;;;4993421;28;20058;-44
2023/09/07 05:19:15;;;;;;;33.10;19.40;;;18.60;99.90;;;;;;4993166;28;20060;-51
2023/09/07 05:21:41;;;;;;;34.83;19.98;;;17.00;99.90;;;;;;4993216;28;20030;-46
2023/09/07 05:24:07;;;;;;;35.78;18.23;;;19.10;99.90;;;;;;4993476;28;20062;-52
2023/09/07 05:26:33;;;;;;;30.85;16.67;;;;;;;;;;4992995;28;20022;-52
2023/09/07 05:28:58;;;;;;;31.85;17.23;;;16.40;99.90;;;;;;4993050;28;20388;-48
2023/09/07 05:31:24;;;;;;;31.45;17.52;;;16.80;99.90;;;;;;4992919;28;20129;-50
2023/09/07 05:33:51;;;;;;;32.35;17.63;;;19.10;99.90;;;;;;4993083;28;20503;-49
2023/09/07 05:36:17;;;;;;;28.55;15.43;;;19.80;99.90;;;;;;4992934;28;20471;-44
2023/09/07 05:38:42;;;;;;;29.70;16.02;;;18.20;99.90;;;;;;4992035;28;20022;-44
2023/09/07 05:41:08;;;;;;;30.75;18.02;;;19.00;99.90;;;;;;4992960;28;20383;-45
2023/09/07 05:43:34;;;;;;;32.40;17.80;;;;;;;;;;4992631;28;20503;-45
2023/09/07 05:46:00;;;;;;;33.63;17.55;;;16.30;99.90;;;;;;4992786;28;20098;-45
2023/09/07 05:48:25;;;;;;;27.88;17.48;;;20.50;99.90;;;;;;4992703;28;20394;-47
2023/09/07 05:50:51;;;;;;;32.28;18.15;;;18.60;99.90;;;;;;4992544;28;20034;-49
2023/09/07 05:53:20;;;;;;;29.90;17.90;;;18.50;99.90;;;;;;4992487;28;20018;-51
2023/09/07 05:55:46;;;;;;;26.80;16.50;;;19.10;99.90;;;;;;4990900;28;20045;-53
2023/09/07 05:58:12;;;;;;;39.20;20.02;;;;;;;;;;4992656;28;20268;-44
2023/09/07 06:00:39;;;;;;;28.23;18.98;;;19.90;99.90;;;;;;4992590;28;20061;-50
2023/09/07 06:03:09;;;;;;;32.70;18.25;;;19.60;99.90;;;;;;4992218;28;20381;-48
2023/09/07 06:05:39;;;;;;;31.05;18.58;;;18.70;99.90;;;;;;4992436;28;20031;-47
2023/09/07 06:08:08;;;;;;;29.55;17.23;;;17.00;99.90;;;;;;4992109;28;20042;-44
2023/09/07 06:10:34;;;;;;;35.72;17.73;;;19.70;99.90;;;;;;4992208;28;20392;-46
2023/09/07 06:13:00;;;;;;;27.70;17.30;;;16.20;99.90;;;;;;4992083;28;20487;-44
2023/09/07 06:15:27;;;;;;;31.00;18.90;;;19.80;99.90;;;;;;4992240;28;20022;-44
2023/09/07 06:17:54;;;;;;;29.60;16.52;;;;;;;;;;4992268;28;20475;-44
2023/09/07 06:20:20;;;;;;;29.65;17.92;;;16.90;99.90;;;;;;4992137;28;20041;-44
2023/09/07 06:22:46;;;;;;;32.97;18.02;;;18.70;99.90;;;;;;4992098;28;20431;-49
2023/09/07 06:25:12;;;;;;;35.10;18.95;;;;;;;;;;4991723;28;20030;-44
2023/09/07 06:27:37;;;;;;;28.75;17.65;;;20.20;99.90;;;;;;4992039;28;20077;-45
2023/09/07 06:30:05;;;;;;;32.83;18.95;;;19.60;99.90;;;;;;4991677;28;20023;-44
2023/09/07 06:32:32;;;;;;;33.58;18.67;;;19.50;99.90;;;;;;4991843;28;20026;-49
2023/09/07 06:34:58;;;;;;;26.83;15.80;;;20.20;99.90;;;;;;4991721;28;20396;-54
2023/09/07 06:37:24;;;;;;;27.27;16.13;;;19.90;99.90;;;;;;4991713;28;20480;-46
2023/09/07 06:39:50;;;;;;;31.15;17.30;;;;;;;;;;4991637;28;20439;-48
2023/09/07 06:42:16;;;;;;;28.85;15.80;;;20.30;99.90;;;;;;4991557;28;20058;-48
2023/09/07 06:44:42;;;;;;;29.73;16.85;;;17.40;99.90;;;;;;4974056;28;20451;-52
2023/09/07 06:47:08;;;;;;;30.15;18.48;;;16.70;99.90;;;;;;4991725;28;20093;-49
2023/09/07 06:49:34;;;;;;;30.83;17.65;;;19.00;99.90;;;;;;4991542;28;20023;-44
2023/09/07 06:52:00;;;;;;;35.85;19.30;;;19.80;99.90;;;;;;4991344;28;20115;-45
2023/09/07 06:54:28;;;;;;;30.52;19.27;;;20.20;99.90;;;;;;4991495;28;20022;-49
2023/09/07 06:56:54;;;;;;;30.08;17.23;;;;;;;;;;4991321;28;20226;-44
2023/09/07 06:59:20;;;;;;;34.25;18.20;;;21.00;99.90;;;;;;4991655;28;20035;-48
2023/09/07 07:01:46;;;;;;;26.88;15.07;;;20.30;99.90;;;;;;4991431;28;20023;-44
2023/09/07 07:04:11;;;;;;;28.10;15.57;;;24.70;99.90;;;;;;4991022;28;20638;-48
2023/09/07 07:06:37;;;;;;;21.42;13.55;;;22.30;99.90;;;;;;4991394;28;20022;-52
2023/09/07 07:09:03;;;;;;;27.23;14.93;;;23.60;99.90;;;;;;4991181;28;20068;-48
2023/09/07 07:11:28;;;;;;;20.77;14.00;;;23.70;99.90;;;;;;4990567;28;20102;-48
2023/09/07 07:13:54;;;;;;;22.67;12.63;;;24.10;99.90;;;;;;4991329;28;20026;-45
2023/09/07 07:16:20;;;;;;;22.05;13.18;;;25.10;99.90;;;;;;4990700;28;20027;-47
2023/09/07 07:18:45;;;;;;;18.95;11.50;;;24.70;99.90;;;;;;4991489;28;20387;-48
2023/09/07 07:21:11;;;;;;;18.58;11.50;;;25.10;99.90;;;;;;4990964;28;20037;-46
2023/09/07 07:23:36;;;;;;;16.88;10.60;;;25.60;99.90;;;;;;4978057;28;20109;-47
2023/09/07 07:26:02;;;;;;;15.73;10.20;;;26.50;99.90;;;;;;4990232;28;20030;-45
2023/09/07 07:28:28;;;;;;;14.48;9.85;;;26.60;99.90;;;;;;4990146;28;20053;-60
2023/09/07 07:30:53;;;;;;;14.10;9.10;;;26.70;99.90;;;;;;4989954;28;20042;-45
2023/09/07 07:33:20;;;;;;;15.07;10.18;;;27.10;99.90;;;;;;4990768;28;20046;-45
2023/09/07 07:35:45;;;;;;;13.65;9.45;;;27.50;99.90;;;;;;4991072;28;20038;-50
2023/09/07 07:38:13;;;;;;;14.70;9.27;;;27.70;99.90;;;;;;4990810;28;20042;-45
2023/09/07 07:40:39;;;;;;;14.50;9.95;;;28.10;99.90;;;;;;4990857;28;20026;-51
2023/09/07 07:43:06;;;;;;;10.95;7.22;;;28.20;99.90;;;;;;4990932;28;20490;-47
2023/09/07 07:45:36;;;;;;;12.70;8.35;;;27.70;99.90;;;;;;4973216;28;20033;-44
2023/09/07 07:48:02;;;;;;;10.95;7.55;;;28.00;99.90;;;;;;4990927;28;20507;-46
2023/09/07 07:50:27;;;;;;;13.15;8.20;;;30.40;99.90;;;;;;4990772;28;20038;-44
2023/09/07 07:52:53;;;;;;;12.80;8.20;;;28.50;99.90;;;;;;4990764;28;20021;-45
2023/09/07 07:55:19;;;;;;;12.35;8.38;;;28.70;99.90;;;;;;4990781;28;20030;-50
2023/09/07 07:57:44;;;;;;;12.63;8.20;;;28.90;99.90;;;;;;4990950;28;20065;-46
2023/09/07 08:00:10;;;;;;;9.57;6.88;;;29.20;99.90;;;;;;4991002;28;20034;-45
2023/09/07 08:02:37;;;;;;;10.82;7.13;;;29.30;99.90;;;;;;4991793;28;20046;-44
2023/09/07 08:05:04;;;;;;;11.43;7.15;;;30.80;99.90;;;;;;4994645;28;20025;-44
2023/09/07 08:07:29;;;;;;;11.15;6.65;;;29.90;99.90;;;;;;4994566;28;20065;-44
2023/09/07 08:09:55;;;;;;;9.00;6.10;;;30.10;99.90;;;;;;4994462;28;20502;-43
2023/09/07 08:12:21;;;;;;;8.65;5.22;;;30.50;99.90;;;;;;4994738;28;20114;-51
2023/09/07 08:14:46;;;;;;;8.55;5.35;;;30.10;99.90;;;;;;4994406;28;20026;-47
2023/09/07 08:17:12;;;;;;;7.85;5.75;;;31.10;99.90;;;;;;4994548;28;20113;-46
2023/09/07 08:19:38;;;;;;;7.60;5.07;;;31.00;99.90;;;;;;4994097;28;20026;-49
2023/09/07 08:22:05;;;;;;;10.13;7.30;;;31.10;99.90;;;;;;4994297;28;20052;-46
2023/09/07 08:24:31;;;;;;;8.30;5.38;;;31.10;99.90;;;;;;4993881;28;20475;-50
2023/09/07 08:26:57;;;;;;;10.23;4.78;;;31.30;99.90;;;;;;4993881;28;20069;-52
2023/09/07 08:29:26;;;;;;;7.88;5.32;;;31.50;99.90;;;;;;4993938;28;20023;-54
2023/09/07 08:31:53;;;;;;;6.32;4.30;;;32.00;99.90;;;;;;4994186;28;20034;-49
2023/09/07 08:34:25;;;;;;;7.68;5.22;;;32.00;99.90;;;;;;4993835;28;20535;-48
2023/09/07 08:36:52;;;;;;;6.63;5.10;;;32.10;99.90;;;;;;4994047;28;20157;-46
2023/09/07 08:39:20;;;;;;;8.48;4.43;;;32.60;99.90;;;;;;4993663;28;20029;-52
2023/09/07 08:41:46;;;;;;;7.43;4.70;;;32.70;99.90;;;;;;4993809;28;20383;-44
2023/09/07 08:44:16;;;;;;;7.70;5.25;;;33.00;99.90;;;;;;4993982;28;20030;-52
2023/09/07 08:46:43;;;;;;;6.80;4.57;;;33.00;98.90;;;;;;4993958;28;20018;-51
2023/09/07 08:49:11;;;;;;;6.57;4.60;;;33.00;98.80;;;;;;4993790;28;20109;-45
2023/09/07 08:51:37;;;;;;;6.18;4.38;;;31.30;98.50;;;;;;4993358;28;20045;-52
2023/09/07 08:54:04;;;;;;;7.43;4.78;;;33.50;99.00;;;;;;4993580;28;20023;-57
2023/09/07 08:56:30;;;;;;;5.93;3.97;;;32.40;97.80;;;;;;4993281;28;20089;-53
2023/09/07 08:58:56;;;;;;;5.65;3.28;;;33.70;98.70;;;;;;4993556;28;20034;-50
2023/09/07 09:01:21;;;;;;;4.53;3.22;;;34.60;98.30;;;;;;4992740;28;20022;-53
2023/09/07 09:03:51;;;;;;;7.18;3.92;;;35.90;97.70;;;;;;4993536;28;20018;-49
2023/09/07 09:06:18;;;;;;;8.07;4.18;;;34.50;97.30;;;;;;4993366;28;20030;-52
2023/09/07 09:08:52;;;;;;;7.45;4.00;;;34.40;95.90;;;;;;4993395;28;20046;-49
2023/09/07 09:11:19;;;;;;;5.13;3.88;;;34.30;96.00;;;;;;4992658;28;20038;-54
2023/09/07 09:13:45;;;;;;;5.90;4.38;;;34.30;96.60;;;;;;4993300;28;20014;-53
2023/09/07 09:16:14;;;;;;;6.32;3.85;;;34.50;95.70;;;;;;4993129;28;20054;-49
2023/09/07 09:18:57;;;;;;;5.90;3.78;;;34.70;95.70;;;;;;4993287;28;20026;-53
2023/09/07 09:21:27;;;;;;;5.88;4.00;;;34.90;95.30;;;;;;4993156;28;20487;-45
2023/09/07 09:23:57;;;;;;;6.32;3.47;;;35.20;95.20;;;;;;4982237;28;20417;-55
2023/09/07 09:26:23;;;;;;;5.80;3.47;;;35.40;95.30;;;;;;4992974;28;20038;-52
2023/09/07 09:28:52;;;;;;;5.22;3.38;;;35.20;94.20;;;;;;4993234;28;20088;-49
2023/09/07 09:31:18;;;;;;;5.07;3.60;;;35.00;94.50;;;;;;4992932;28;20037;-54
2023/09/07 09:33:48;;;;;;;4.82;3.25;;;35.10;94.70;;;;;;4993016;28;20022;-45
2023/09/07 09:36:14;;;;;;;5.22;3.45;;;35.00;94.00;;;;;;4992974;28;20026;-52
2023/09/07 09:38:39;;;;;;;5.65;3.80;;;34.90;94.10;;;;;;4992853;28;20019;-48
2023/09/07 09:41:08;;;;;;;7.07;3.75;;;34.80;94.20;;;;;;4993058;28;20046;-50
2023/09/07 09:43:34;;;;;;;6.22;3.70;;;34.60;94.40;;;;;;4992487;28;20181;-54
2023/09/07 09:46:00;;;;;;;6.10;3.33;;;35.30;95.10;;;;;;4992638;28;20551;-51
2023/09/07 09:48:27;;;;;;;4.80;3.25;;;35.30;93.10;;;;;;4993019;28;20033;-49
2023/09/07 09:50:53;;;;;;;5.63;3.00;;;35.20;93.80;;;;;;4992640;28;20105;-45
2023/09/07 09:53:20;;;;;;;6.95;3.63;;;35.30;94.00;;;;;;4992806;28;20026;-48
2023/09/07 09:55:46;;;;;;;5.05;2.78;;;35.20;92.80;;;;;;4992674;28;20383;-48
2023/09/07 09:58:14;;;;;;;3.65;2.25;;;34.10;91.30;;;;;;4992652;28;20480;-49
2023/09/07 10:00:43;;;;;;;3.80;2.38;;;35.00;92.50;;;;;;4992644;28;20106;-47
2023/09/07 10:03:12;;;;;;;5.80;4.00;;;35.10;91.90;;;;;;4992405;28;20431;-47
2023/09/07 10:05:38;;;;;;;4.53;2.80;;;35.10;91.80;;;;;;4992512;28;20530;-45
2023/09/07 10:08:11;;;;;;;6.20;2.50;;;35.10;91.40;;;;;;4992296;28;20095;-51
2023/09/07 10:10:38;;;;;;;4.00;2.17;;;35.00;90.90;;;;;;4992371;28;20046;-52
2023/09/07 10:13:05;;;;;;;2.45;1.83;;;35.10;91.70;;;;;;4990925;28;20038;-49
2023/09/07 10:15:32;;;;;;;3.40;2.15;;;35.30;91.20;;;;;;4992267;28;20561;-51
2023/09/07 10:18:13;;;;;;;6.18;2.20;;;35.50;90.80;;;;;;4992133;28;20065;-51
2023/09/07 10:20:58;;;;;;;3.55;2.38;;;35.40;90.10;;;;;;4991976;28;20032;-51
2023/09/07 10:23:43;;;;;;;3.17;2.10;;;35.00;88.00;;;;;;4991851;28;20084;-45
2023/09/07 10:26:16;;;;;;;3.83;2.03;;;34.30;88.80;;;;;;4991302;28;20033;-51
2023/09/07 10:28:45;;;;;;;3.40;2.13;;;34.20;87.60;;;;;;4990465;28;20029;-48
2023/09/07 10:31:17;;;;;;;3.65;2.58;;;33.80;89.10;;;;;;4991926;28;20053;-53
2023/09/07 10:33:43;;;;;;;3.55;2.60;;;33.40;87.80;;;;;;4991854;28;20019;-47
2023/09/07 10:36:28;;;;;;;4.38;2.22;;;33.40;90.50;;;;;;4991849;28;20046;-54
2023/09/07 10:38:55;;;;;;;4.18;2.40;;;33.60;91.20;;;;;;4991859;28;20427;-52
2023/09/07 10:41:21;;;;;;;4.07;2.35;;;34.70;90.80;;;;;;4991722;28;20053;-50
2023/09/07 10:43:49;;;;;;;4.30;2.60;;;34.10;89.40;;;;;;4991329;28;20458;-53
2023/09/07 10:46:14;;;;;;;5.47;2.40;;;34.70;89.80;;;;;;4973984;28;20115;-50
2023/09/07 10:48:40;;;;;;;4.45;2.63;;;34.80;90.70;;;;;;4991565;28;20022;-47
2023/09/07 10:51:06;;;;;;;4.90;2.80;;;32.60;88.00;;;;;;4991453;28;20038;-45
2023/09/07 10:53:33;;;;;;;2.95;2.10;;;33.90;89.40;;;;;;4991561;28;20395;-49
2023/09/07 10:56:02;;;;;;;4.72;2.17;;;34.40;90.90;;;;;;4991440;28;20033;-46
2023/09/07 10:58:38;;;;;;;3.47;2.28;;;34.00;91.20;;;;;;4991563;28;20105;-45
2023/09/07 11:01:04;;;;;;;3.13;2.00;;;34.00;89.40;;;;;;4991577;28;20038;-45
2023/09/07 11:03:30;;;;;;;3.38;2.13;;;34.30;90.80;;;;;;4991735;28;20073;-45
2023/09/07 11:05:59;;;;;;;4.32;2.20;;;34.50;88.60;;;;;;4991217;28;20026;-48
2023/09/07 11:08:25;;;;;;;4.00;2.20;;;34.70;90.00;;;;;;4991297;28;20050;-47
2023/09/07 11:10:54;;;;;;;3.25;1.98;;;35.70;91.10;;;;;;4990963;28;20507;-48
2023/09/07 11:13:20;;;;;;;3.75;2.20;;;35.00;90.20;;;;;;4990964;28;20019;-52
2023/09/07 11:15:45;;;;;;;3.67;2.13;;;35.10;90.40;;;;;;4991010;28;20545;-53
2023/09/07 11:18:11;;;;;;;5.13;2.10;;;34.60;87.70;;;;;;4991046;28;20022;-47
2023/09/07 11:20:39;;;;;;;3.72;2.30;;;34.60;88.10;;;;;;4991150;28;20034;-49
2023/09/07 11:23:05;;;;;;;3.17;2.10;;;34.60;86.40;;;;;;4990841;28;20015;-49
2023/09/07 11:25:38;;;;;;;2.80;2.00;;;36.00;90.30;;;;;;4991106;28;20049;-50
2023/09/07 11:28:06;;;;;;;4.30;2.05;;;34.20;87.40;;;;;;4990690;28;20026;-49
2023/09/07 11:30:33;;;;;;;4.35;2.10;;;33.20;85.80;;;;;;4990893;28;20049;-54
2023/09/07 11:33:05;;;;;;;3.70;2.22;;;33.80;85.30;;;;;;4990915;28;20200;-51
2023/09/07 11:35:30;;;;;;;3.85;2.50;;;33.60;87.20;;;;;;4982551;28;20113;-47
2023/09/07 11:37:56;;;;;;;3.75;1.90;;;33.70;87.50;;;;;;4989791;28;20101;-47
2023/09/07 11:40:22;;;;;;;4.22;2.20;;;33.70;88.50;;;;;;4990694;28;20490;-43
2023/09/07 11:42:48;;;;;;;2.85;2.03;;;34.70;88.30;;;;;;4990638;28;20023;-48
2023/09/07 11:45:14;;;;;;;5.53;2.10;;;35.10;90.30;;;;;;4990969;28;20030;-49
2023/09/07 11:47:39;;;;;;;5.18;2.00;;;34.00;90.40;;;;;;4990638;28;20030;-55
2023/09/07 11:50:08;;;;;;;4.50;2.42;;;33.90;89.40;;;;;;4990904;28;20153;-46
2023/09/07 11:52:34;;;;;;;3.58;2.40;;;33.50;87.50;;;;;;4990671;28;20026;-48
2023/09/07 11:55:00;;;;;;;4.22;2.30;;;32.30;89.00;;;;;;4990749;28;20545;-49
2023/09/07 11:57:25;;;;;;;4.50;2.50;;;33.30;85.60;;;;;;4990782;28;20026;-48
2023/09/07 11:59:52;;;;;;;3.20;1.80;;;33.60;88.20;;;;;;4988556;28;20022;-44
2023/09/07 12:02:17;;;;;;;3.50;2.17;;;34.00;87.60;;;;;;4984101;28;20029;-48
2023/09/07 12:04:43;;;;;;;3.42;2.10;;;33.90;89.70;;;;;;4988748;28;20034;-51
2023/09/07 12:07:10;;;;;;;5.05;2.50;;;33.40;88.70;;;;;;4990033;28;20039;-48
2023/09/07 12:09:36;;;;;;;5.00;2.30;;;33.70;86.20;;;;;;4986030;28;20038;-52
2023/09/07 12:12:02;;;;;;;4.63;2.17;;;33.60;88.00;;;;;;4995071;28;20037;-53
2023/09/07 12:14:28;;;;;;;3.63;2.00;;;33.50;87.10;;;;;;4992775;28;20019;-46
2023/09/07 12:16:54;;;;;;;2.90;1.98;;;33.70;86.10;;;;;;4989577;28;20080;-44
2023/09/07 12:19:19;;;;;;;2.88;2.17;;;33.40;87.30;;;;;;4993065;28;20030;-44
2023/09/07 12:21:45;;;;;;;3.78;2.17;;;33.00;88.40;;;;;;4990294;28;20081;-46
2023/09/07 12:24:12;;;;;;;4.55;2.25;;;32.90;86.70;;;;;;4990491;28;20034;-45
2023/09/07 12:26:37;;;;;;;3.75;2.25;;;31.60;89.60;;;;;;4989618;28;20027;-51
2023/09/07 12:29:04;;;;;;;4.95;2.30;;;32.80;88.30;;;;;;4990262;28;20032;-50
2023/09/07 12:31:31;;;;;;;4.68;2.55;;;34.40;89.30;;;;;;4989829;28;20045;-46
2023/09/07 12:33:57;;;;;;;3.92;2.25;;;34.70;89.40;;;;;;4990459;28;20026;-54
2023/09/07 12:36:22;;;;;;;3.55;2.20;;;31.20;86.10;;;;;;4990251;28;20041;-45
2023/09/07 12:38:49;;;;;;;2.55;1.85;;;32.70;86.90;;;;;;4989729;28;20046;-48